TimeCST,TemperatureF,Dew PointF,Humidity,Sea Level PressureIn,VisibilityMPH,Wind Direction,Wind SpeedMPH,Gust SpeedMPH,PrecipitationIn,Events,Conditions,WindDirDegrees,DateUTC
12:55 AM,43.5,39.9,87,29.98,10.0,SSE,4.6,-,N/A,,Clear,150,2012-12-19 06:55:00
1:55 AM,41.5,39.0,91,29.99,10.0,SSE,4.6,-,N/A,,Clear,160,2012-12-19 07:55:00
2:55 AM,40.5,38.5,93,29.99,10.0,SE,4.6,-,N/A,,Clear,140,2012-12-19 08:55:00
3:55 AM,40.8,39.6,95,30.00,10.0,SSE,5.8,-,N/A,,Clear,150,2012-12-19 09:55:00
4:55 AM,40.3,39.4,97,29.99,10.0,SE,5.8,-,N/A,,Clear,140,2012-12-19 10:55:00
5:55 AM,39.6,38.8,97,30.01,10.0,SE,3.5,-,N/A,,Clear,140,2012-12-19 11:55:00
6:55 AM,37.0,36.3,97,30.04,10.0,Calm,Calm,-,N/A,,Clear,0,2012-12-19 12:55:00
7:55 AM,44.4,44.2,99,30.05,10.0,SSE,6.9,-,N/A,,Clear,150,2012-12-19 13:55:00
8:55 AM,50.2,45.3,83,30.06,10.0,SSE,5.8,-,N/A,,Clear,150,2012-12-19 14:55:00
9:55 AM,58.3,43.2,57,30.06,10.0,South,6.9,-,N/A,,Clear,180,2012-12-19 15:55:00
10:55 AM,63.1,43.2,48,30.02,10.0,SSW,9.2,-,N/A,,Clear,200,2012-12-19 16:55:00
11:55 AM,66.0,43.3,44,29.99,10.0,South,8.1,-,N/A,,Clear,170,2012-12-19 17:55:00
12:55 PM,68.5,44.1,41,29.97,10.0,SSW,9.2,-,N/A,,Clear,200,2012-12-19 18:55:00
1:55 PM,69.6,45.9,43,29.95,10.0,SSW,11.5,-,N/A,,Clear,200,2012-12-19 19:55:00
2:55 PM,69.3,46.8,45,29.94,10.0,South,10.4,-,N/A,,Clear,180,2012-12-19 20:55:00
3:55 PM,67.8,47.7,48,29.94,10.0,SSE,9.2,-,N/A,,Clear,160,2012-12-19 21:55:00
4:55 PM,59.9,47.7,64,29.94,10.0,SSE,10.4,-,N/A,,Clear,150,2012-12-19 22:55:00
5:55 PM,55.0,46.0,72,29.94,10.0,SE,6.9,-,N/A,,Clear,140,2012-12-19 23:55:00
6:55 PM,52.9,45.9,77,29.94,10.0,SSE,9.2,-,N/A,,Clear,150,2012-12-20 00:55:00
7:55 PM,53.4,46.2,77,29.93,10.0,SSE,9.2,-,N/A,,Clear,150,2012-12-20 01:55:00
8:55 PM,53.4,44.4,72,29.94,10.0,SSE,8.1,-,N/A,,Clear,160,2012-12-20 02:55:00
9:55 PM,59.4,46.0,61,29.90,10.0,South,15.0,-,N/A,,Partly Cloudy,170,2012-12-20 03:55:00
10:55 PM,60.8,48.7,64,29.88,10.0,South,11.5,-,N/A,,Partly Cloudy,170,2012-12-20 04:55:00
11:55 PM,61.2,51.8,71,29.84,10.0,South,15.0,23.0,N/A,,Clear,170,2012-12-20 05:55:00